Time;durP1;ratioP1;P1;durP2;ratioP2;P2;SDS_P1;SDS_P2;PMS_P1;PMS_P2;Temp;Humidity;BMP_temperature;BMP_pressure;BME280_temperature;BME280_humidity;BME280_pressure;Samples;Min_cycle;Max_cycle;Signal;HPM_P1;HPM_P2
2022/12/22 17:15:18;;;;;;;6.60;2.47;;;9.70;99.90;;;;;;5092228;27;20544;-65
2022/12/22 17:17:44;;;;;;;11.10;2.97;;;9.70;99.90;;;;;;5092065;28;20528;-63
2022/12/22 17:20:14;;;;;;;3.60;2.80;;;9.90;99.90;;;;;;5091576;28;20516;-62
2022/12/22 17:22:42;;;;;;;16.37;3.30;;;10.10;99.90;;;;;;5091385;28;20560;-62
2022/12/22 17:25:15;;;;;;;8.00;3.67;;;10.30;99.90;;;;;;5091984;28;20490;-63
2022/12/22 17:27:42;;;;;;;5.07;2.23;;;10.40;99.90;;;;;;5092969;28;20483;-63
2022/12/22 17:30:16;;;;;;;4.97;2.30;;;10.60;99.90;;;;;;5093067;28;20445;-64
2022/12/22 17:32:43;;;;;;;4.67;2.50;;;10.70;99.90;;;;;;5093100;28;20472;-64
2022/12/22 17:35:13;;;;;;;7.00;2.03;;;10.80;99.90;;;;;;5092632;28;20458;-63
2022/12/22 17:37:41;;;;;;;5.63;2.13;;;10.90;99.90;;;;;;5092817;28;20445;-63
2022/12/22 17:40:11;;;;;;;6.80;2.50;;;11.00;99.90;;;;;;5091331;28;20479;-63
2022/12/22 17:42:38;;;;;;;8.70;3.63;;;11.00;99.90;;;;;;5091351;28;20474;-65
2022/12/22 17:45:12;;;;;;;10.53;2.77;;;11.10;99.90;;;;;;5092034;28;20446;-65
2022/12/22 17:47:41;;;;;;;8.43;3.23;;;11.10;99.90;;;;;;5091181;28;20838;-65
2022/12/22 17:50:11;;;;;;;10.23;3.33;;;11.10;99.90;;;;;;5091160;28;20458;-62
2022/12/22 17:52:38;;;;;;;9.13;2.70;;;11.20;99.90;;;;;;5091359;28;20469;-62
2022/12/22 17:55:05;;;;;;;12.80;3.90;;;11.20;99.90;;;;;;5091167;28;20522;-62
2022/12/22 17:57:35;;;;;;;8.13;3.07;;;11.30;99.90;;;;;;5090673;28;20983;-63
2022/12/22 18:00:02;;;;;;;12.90;4.07;;;11.30;99.90;;;;;;5091019;28;20453;-63
2022/12/22 18:02:29;;;;;;;10.37;2.93;;;11.30;99.90;;;;;;5090451;28;20530;-63
2022/12/22 18:04:56;;;;;;;10.20;3.50;;;11.30;99.90;;;;;;5090441;28;20455;-63
2022/12/22 18:07:24;;;;;;;7.57;3.00;;;11.30;99.90;;;;;;5090695;28;20465;-62
2022/12/22 18:09:56;;;;;;;9.40;3.00;;;11.30;99.90;;;;;;5090639;28;20502;-63
2022/12/22 18:12:24;;;;;;;6.10;2.77;;;11.40;99.90;;;;;;5090718;28;20469;-63
2022/12/22 18:14:52;;;;;;;6.47;3.40;;;11.40;99.90;;;;;;5090321;28;20476;-63
2022/12/22 18:17:23;;;;;;;9.23;3.13;;;11.50;99.90;;;;;;5090727;28;20504;-62
2022/12/22 18:19:50;;;;;;;10.77;4.20;;;11.50;99.90;;;;;;5091006;28;20441;-65
2022/12/22 18:22:20;;;;;;;11.33;3.80;;;11.50;99.90;;;;;;5090563;28;20469;-65
2022/12/22 18:24:47;;;;;;;12.00;3.60;;;11.50;99.90;;;;;;5086773;28;20431;-64
2022/12/22 18:27:15;;;;;;;9.67;3.13;;;11.50;99.90;;;;;;5077392;28;20454;-65
2022/12/22 18:29:42;;;;;;;14.97;5.03;;;11.50;99.90;;;;;;5077904;28;20434;-65
2022/12/22 18:32:09;;;;;;;12.37;3.60;;;11.40;99.90;;;;;;5077515;28;20478;-65
2022/12/22 18:34:36;;;;;;;21.37;4.47;;;11.40;99.90;;;;;;5077368;28;20477;-66
2022/12/22 18:37:05;;;;;;;13.77;3.43;;;11.40;99.90;;;;;;5077452;28;20484;-64
2022/12/22 18:39:35;;;;;;;16.90;3.90;;;11.40;99.90;;;;;;5078768;28;20462;-65
2022/12/22 18:42:02;;;;;;;14.47;3.53;;;11.40;99.90;;;;;;5079492;28;20478;-66
2022/12/22 18:44:29;;;;;;;14.57;5.07;;;11.40;99.90;;;;;;5079065;28;20497;-66
2022/12/22 18:46:55;;;;;;;17.37;4.07;;;11.40;99.90;;;;;;5084834;28;20995;-66
2022/12/22 18:49:22;;;;;;;14.80;4.63;;;11.40;99.90;;;;;;5082399;28;20945;-63
2022/12/22 18:51:49;;;;;;;12.13;4.30;;;11.50;99.90;;;;;;5077657;28;20557;-66
2022/12/22 18:54:24;;;;;;;16.17;4.40;;;11.50;99.90;;;;;;5076632;28;21007;-66
2022/12/22 18:56:52;;;;;;;15.10;4.57;;;11.50;99.90;;;;;;5076478;28;20492;-66
2022/12/22 18:59:28;;;;;;;12.03;4.33;;;11.50;99.90;;;;;;5076967;28;20503;-65
2022/12/22 19:01:59;;;;;;;17.87;3.83;;;11.50;99.90;;;;;;5076949;28;20470;-66
2022/12/22 19:04:26;;;;;;;10.63;3.70;;;11.40;99.90;;;;;;5076498;28;20434;-66
2022/12/22 19:06:53;;;;;;;9.33;3.50;;;11.50;99.90;;;;;;5076861;28;20454;-66
2022/12/22 19:09:22;;;;;;;12.90;3.57;;;11.50;99.90;;;;;;5076874;28;20446;-65
2022/12/22 19:11:48;;;;;;;11.63;3.57;;;11.40;99.90;;;;;;5076333;28;20470;-65
2022/12/22 19:14:19;;;;;;;13.00;4.80;;;11.50;99.90;;;;;;5076501;28;20822;-64
2022/12/22 19:16:47;;;;;;;13.07;3.90;;;11.40;99.90;;;;;;5080312;28;20466;-64
2022/12/22 19:19:17;;;;;;;14.70;4.83;;;11.40;99.90;;;;;;5084159;28;20450;-65
2022/12/22 19:21:44;;;;;;;12.70;3.70;;;11.50;99.90;;;;;;5084638;28;20481;-64
2022/12/22 19:24:11;;;;;;;14.73;3.97;;;11.50;99.90;;;;;;5078345;28;20446;-64
2022/12/22 19:26:39;;;;;;;18.53;5.73;;;11.60;99.90;;;;;;5077691;28;20523;-64
2022/12/22 19:29:06;;;;;;;16.90;7.10;;;11.60;99.90;;;;;;5077031;28;20476;-64
2022/12/22 19:31:35;;;;;;;21.17;5.67;;;11.60;99.90;;;;;;5076025;28;20473;-64
2022/12/22 19:34:06;;;;;;;15.50;6.60;;;11.60;99.90;;;;;;5075991;28;20875;-68
2022/12/22 19:36:33;;;;;;;18.90;4.80;;;11.60;99.90;;;;;;5074973;28;20438;-64
2022/12/22 19:39:00;;;;;;;16.77;5.90;;;11.60;99.90;;;;;;5075849;28;20540;-65
2022/12/22 19:41:34;;;;;;;25.10;5.90;;;11.50;99.90;;;;;;5075950;28;20474;-64
2022/12/22 19:44:01;;;;;;;16.40;4.67;;;11.50;99.90;;;;;;5075747;28;20840;-65
2022/12/22 19:46:32;;;;;;;14.20;5.03;;;11.50;99.90;;;;;;5075948;28;20503;-72
2022/12/22 19:49:00;;;;;;;13.50;5.73;;;11.50;99.90;;;;;;5075742;28;20438;-64
2022/12/22 19:51:27;;;;;;;20.13;6.00;;;11.40;99.90;;;;;;5075622;28;20976;-64
2022/12/22 19:53:54;;;;;;;20.20;7.20;;;11.40;99.90;;;;;;5076199;28;20488;-64
2022/12/22 19:56:24;;;;;;;14.07;5.30;;;11.40;99.90;;;;;;5076144;28;20485;-65
2022/12/22 19:58:51;;;;;;;20.00;5.00;;;11.40;99.90;;;;;;5075571;28;20434;-66
2022/12/22 20:01:18;;;;;;;15.07;4.90;;;11.40;99.90;;;;;;5075224;28;20976;-61
2022/12/22 20:03:44;;;;;;;13.43;6.07;;;11.40;99.90;;;;;;5075597;28;20450;-61
2022/12/22 20:06:13;;;;;;;12.10;3.77;;;11.40;99.90;;;;;;5075457;28;20830;-61
2022/12/22 20:08:40;;;;;;;16.00;4.03;;;11.30;99.90;;;;;;5075260;28;20523;-65
2022/12/22 20:11:13;;;;;;;12.43;3.97;;;11.30;99.90;;;;;;5074974;28;20457;-65
2022/12/22 20:13:40;;;;;;;15.13;4.40;;;11.20;99.90;;;;;;5074781;28;20906;-63
2022/12/22 20:16:07;;;;;;;11.13;3.77;;;11.20;99.90;;;;;;5075272;28;20458;-65
2022/12/22 20:18:34;;;;;;;12.33;4.43;;;11.20;99.90;;;;;;5075003;28;20995;-64
2022/12/22 20:21:04;;;;;;;13.80;3.60;;;11.10;99.90;;;;;;5075816;28;20454;-64
2022/12/22 20:23:36;;;;;;;15.50;4.13;;;11.10;99.90;;;;;;5074878;28;20956;-64
2022/12/22 20:26:06;;;;;;;9.90;3.90;;;11.10;99.90;;;;;;5077161;28;20525;-64
2022/12/22 20:28:35;;;;;;;13.70;3.53;;;11.10;99.90;;;;;;5075188;28;20790;-63
2022/12/22 20:31:02;;;;;;;11.53;3.47;;;11.10;99.90;;;;;;5076835;28;20507;-64
2022/12/22 20:33:29;;;;;;;8.67;2.83;;;11.20;99.90;;;;;;5077218;28;20496;-65
2022/12/22 20:35:58;;;;;;;7.97;2.63;;;11.20;99.90;;;;;;5078392;28;20478;-64
2022/12/22 20:38:31;;;;;;;7.87;3.40;;;11.10;99.90;;;;;;5075752;28;20933;-68
2022/12/22 20:41:00;;;;;;;12.63;3.40;;;11.10;99.90;;;;;;5074802;28;20941;-65
2022/12/22 20:43:29;;;;;;;9.80;3.90;;;11.10;99.90;;;;;;5074723;28;20434;-65
2022/12/22 20:46:00;;;;;;;5.50;3.43;;;11.10;99.90;;;;;;5074908;28;20488;-63
2022/12/22 20:48:32;;;;;;;11.30;3.53;;;11.00;99.90;;;;;;5075843;28;20442;-64
2022/12/22 20:50:59;;;;;;;6.70;3.10;;;11.00;99.90;;;;;;5074829;28;20517;-64
2022/12/22 20:53:25;;;;;;;8.43;4.80;;;11.00;99.90;;;;;;5074600;28;20446;-64
2022/12/22 20:55:53;;;;;;;10.07;4.33;;;11.00;99.90;;;;;;5079775;28;20454;-65
2022/12/22 20:58:24;;;;;;;11.00;4.17;;;11.00;99.90;;;;;;5080709;28;20917;-64
2022/12/22 21:00:52;;;;;;;12.00;4.20;;;11.00;99.90;;;;;;5082359;28;20434;-67
2022/12/22 21:03:22;;;;;;;9.17;3.40;;;10.90;99.90;;;;;;5082163;28;20467;-66
2022/12/22 21:05:50;;;;;;;6.17;2.77;;;10.90;99.90;;;;;;5080245;28;20434;-65
2022/12/22 21:08:19;;;;;;;8.63;3.67;;;10.90;99.90;;;;;;5077707;28;20969;-64
2022/12/22 21:10:46;;;;;;;12.17;2.87;;;10.80;99.90;;;;;;5078317;28;20458;-64
2022/12/22 21:13:14;;;;;;;6.50;3.20;;;10.80;99.90;;;;;;5077884;28;20478;-65
2022/12/22 21:15:43;;;;;;;11.40;3.63;;;10.80;99.90;;;;;;5077727;28;20474;-65
2022/12/22 21:18:15;;;;;;;8.50;3.37;;;10.80;99.90;;;;;;5076445;28;20525;-65
2022/12/22 21:20:42;;;;;;;8.30;2.73;;;10.80;99.90;;;;;;5075705;28;20456;-66
2022/12/22 21:23:09;;;;;;;9.17;3.00;;;10.70;99.90;;;;;;5075431;28;20999;-67
2022/12/22 21:25:36;;;;;;;6.80;3.13;;;10.80;99.90;;;;;;5075811;28;20538;-65
2022/12/22 21:28:06;;;;;;;7.43;3.20;;;10.80;99.90;;;;;;5075485;28;20481;-65
2022/12/22 21:30:33;;;;;;;4.23;2.30;;;10.80;99.90;;;;;;5074971;28;20458;-66
2022/12/22 21:33:01;;;;;;;11.63;2.77;;;10.80;99.90;;;;;;5075040;28;20470;-66
2022/12/22 21:35:34;;;;;;;5.37;2.60;;;10.80;99.90;;;;;;5073873;28;20477;-66
2022/12/22 21:38:01;;;;;;;7.87;3.20;;;10.80;99.90;;;;;;5073891;28;20972;-66
2022/12/22 21:40:29;;;;;;;3.97;2.20;;;10.80;99.90;;;;;;5074725;28;20503;-67
2022/12/22 21:42:56;;;;;;;3.30;2.07;;;10.80;99.90;;;;;;5074903;28;20470;-68
2022/12/22 21:45:26;;;;;;;5.37;2.20;;;10.70;99.90;;;;;;5074588;28;20446;-66
2022/12/22 21:47:53;;;;;;;4.90;1.50;;;10.70;99.90;;;;;;5074395;28;20449;-66
2022/12/22 21:50:24;;;;;;;5.60;1.60;;;10.70;99.90;;;;;;5078547;28;20454;-66
2022/12/22 21:52:52;;;;;;;5.37;1.60;;;10.70;99.90;;;;;;5079219;28;20524;-65
2022/12/22 21:55:24;;;;;;;2.63;1.93;;;10.70;99.90;;;;;;5079221;28;20508;-66
2022/12/22 21:57:51;;;;;;;4.00;1.67;;;10.70;99.90;;;;;;5079796;28;20450;-65
2022/12/22 22:00:21;;;;;;;9.23;2.23;;;10.70;99.90;;;;;;5081561;28;20453;-66
2022/12/22 22:02:49;;;;;;;10.13;1.70;;;10.60;99.90;;;;;;5083714;28;20481;-67
2022/12/22 22:05:28;;;;;;;8.00;2.13;;;10.60;99.90;;;;;;5088023;28;20469;-64
2022/12/22 22:07:56;;;;;;;3.30;1.80;;;10.60;99.90;;;;;;5087841;28;20450;-64
2022/12/22 22:10:26;;;;;;;7.60;1.60;;;10.50;99.90;;;;;;5087022;28;20541;-65
2022/12/22 22:12:53;;;;;;;3.47;1.90;;;10.50;99.90;;;;;;5083384;28;20509;-65
2022/12/22 22:15:22;;;;;;;5.87;2.30;;;10.50;99.90;;;;;;5081793;28;20458;-65
2022/12/22 22:17:50;;;;;;;1.53;1.40;;;10.40;99.90;;;;;;5080908;28;20456;-67
2022/12/22 22:20:19;;;;;;;4.10;1.40;;;10.40;99.90;;;;;;5081937;28;20453;-66
2022/12/22 22:22:49;;;;;;;8.13;1.97;;;10.30;99.90;;;;;;5081731;28;20478;-66
2022/12/22 22:25:18;;;;;;;3.80;1.70;;;10.30;99.90;;;;;;5079945;28;20461;-65
2022/12/22 22:27:45;;;;;;;2.83;1.77;;;10.30;99.90;;;;;;5080498;28;20475;-65
2022/12/22 22:30:15;;;;;;;9.53;2.03;;;10.30;99.90;;;;;;5080445;28;21018;-65
2022/12/22 22:32:42;;;;;;;5.57;1.87;;;10.20;99.90;;;;;;5080674;28;20519;-66
2022/12/22 22:35:10;;;;;;;9.23;2.10;;;10.20;99.90;;;;;;5079005;28;20478;-62
2022/12/22 22:37:38;;;;;;;8.10;2.33;;;10.20;99.90;;;;;;5079538;28;20445;-64
2022/12/22 22:40:13;;;;;;;5.10;2.13;;;10.10;99.90;;;;;;5080436;28;20564;-64
2022/12/22 22:42:40;;;;;;;5.53;1.87;;;10.10;99.90;;;;;;5080648;28;20476;-67
2022/12/22 22:45:09;;;;;;;9.20;2.60;;;10.10;99.90;;;;;;5081406;28;20527;-65
2022/12/22 22:47:35;;;;;;;4.57;2.20;;;10.10;99.90;;;;;;5080534;28;20460;-65
2022/12/22 22:50:05;;;;;;;4.70;2.40;;;10.10;99.90;;;;;;5081153;28;20458;-66
2022/12/22 22:52:32;;;;;;;4.50;2.60;;;10.10;99.90;;;;;;5081247;28;20477;-65
2022/12/22 22:55:00;;;;;;;7.47;2.10;;;10.10;99.90;;;;;;5081302;28;20488;-65
